createdAt,value
2023-03-10T00:00:05.795Z,3.80
2023-03-10T00:02:34.689Z,4.53
2023-03-10T00:05:02.524Z,4.00
2023-03-10T00:07:29.080Z,4.75
2023-03-10T00:09:55.709Z,4.00
2023-03-10T00:12:22.681Z,3.67
2023-03-10T00:14:49.597Z,3.65
2023-03-10T00:17:16.183Z,4.72
2023-03-10T00:19:42.755Z,3.58
2023-03-10T00:22:09.251Z,4.15
2023-03-10T00:24:35.912Z,4.38
2023-03-10T00:27:02.525Z,4.28
2023-03-10T00:29:29.102Z,3.95
2023-03-10T00:31:55.648Z,2.95
2023-03-10T00:34:22.143Z,2.75
2023-03-10T00:36:48.672Z,5.05
2023-03-10T00:39:15.249Z,4.50
2023-03-10T00:41:41.832Z,4.70
2023-03-10T00:44:09.544Z,3.70
2023-03-10T00:46:38.639Z,4.32
2023-03-10T00:49:06.933Z,4.32
2023-03-10T00:51:34.368Z,2.65
2023-03-10T00:54:02.737Z,1.05
2023-03-10T00:56:29.979Z,2.22
2023-03-10T00:58:59.777Z,3.65
2023-03-10T01:01:31.209Z,1.50
2023-03-10T01:04:00.563Z,2.55
2023-03-10T01:06:27.588Z,3.13
2023-03-10T01:08:54.459Z,2.80
2023-03-10T01:11:24.986Z,1.13
2023-03-10T01:13:52.482Z,1.73
2023-03-10T01:16:19.629Z,2.72
2023-03-10T01:18:46.543Z,1.77
2023-03-10T01:21:20.859Z,2.15
2023-03-10T01:23:47.576Z,2.37
2023-03-10T01:26:15.525Z,1.77
2023-03-10T01:28:43.260Z,3.42
2023-03-10T01:31:09.913Z,1.90
2023-03-10T01:33:41.421Z,0.80
2023-03-10T01:36:13.032Z,1.88
2023-03-10T01:38:39.790Z,3.08
2023-03-10T01:41:06.721Z,1.95
2023-03-10T01:43:36.981Z,1.70
2023-03-10T01:46:03.476Z,1.48
2023-03-10T01:48:35.767Z,1.95
2023-03-10T01:51:02.941Z,1.20
2023-03-10T01:53:29.814Z,0.70
2023-03-10T01:56:00.478Z,1.90
2023-03-10T01:58:34.421Z,0.70
2023-03-10T02:01:01.295Z,1.33
2023-03-10T02:03:32.824Z,1.13
2023-03-10T02:06:03.645Z,1.38
2023-03-10T02:08:34.780Z,1.70
2023-03-10T02:11:01.616Z,1.98
2023-03-10T02:13:28.263Z,1.08
2023-03-10T02:15:54.983Z,2.75
2023-03-10T02:18:22.149Z,1.80
2023-03-10T02:21:13.616Z,1.02
2023-03-10T02:24:03.577Z,0.70
2023-03-10T02:27:02.765Z,1.48
2023-03-10T02:29:58.005Z,1.80
2023-03-10T02:32:25.941Z,2.13
2023-03-10T02:34:52.891Z,1.73
2023-03-10T02:37:26.274Z,0.90
2023-03-10T02:39:52.873Z,0.88
2023-03-10T02:42:20.115Z,1.73
2023-03-10T02:44:48.802Z,1.08
2023-03-10T02:47:16.210Z,0.57
2023-03-10T02:49:43.659Z,1.55
2023-03-10T02:52:26.082Z,3.03
2023-03-10T02:54:52.776Z,1.38
2023-03-10T02:57:19.311Z,2.38
2023-03-10T02:59:45.857Z,1.13
2023-03-10T03:02:12.421Z,1.23
2023-03-10T03:04:39.020Z,1.48
2023-03-10T03:07:05.631Z,1.77
2023-03-10T03:09:32.250Z,2.53
2023-03-10T03:11:59.833Z,1.10
2023-03-10T03:14:26.396Z,1.75
2023-03-10T03:16:53.542Z,1.30
2023-03-10T03:19:20.179Z,2.78
2023-03-10T03:21:49.768Z,2.10
2023-03-10T03:24:18.488Z,2.60
2023-03-10T03:26:45.077Z,2.80
2023-03-10T03:29:11.964Z,2.05
2023-03-10T03:31:39.109Z,0.82
2023-03-10T03:34:06.026Z,1.85
2023-03-10T03:36:32.687Z,2.03
2023-03-10T03:38:59.290Z,3.13
2023-03-10T03:41:25.855Z,1.83
2023-03-10T03:43:52.415Z,1.77
2023-03-10T03:46:19.055Z,0.85
2023-03-10T03:48:45.668Z,3.15
2023-03-10T03:51:12.452Z,2.78
2023-03-10T03:53:39.038Z,1.85
2023-03-10T03:56:05.881Z,1.77
2023-03-10T03:58:32.520Z,4.40
2023-03-10T04:00:59.193Z,2.42
2023-03-10T04:03:25.853Z,1.63
2023-03-10T04:05:52.733Z,2.17
2023-03-10T04:08:19.289Z,2.20
2023-03-10T04:10:53.682Z,2.05
2023-03-10T04:13:20.905Z,2.30
2023-03-10T04:15:47.541Z,1.88
2023-03-10T04:18:14.241Z,2.60
2023-03-10T04:20:40.810Z,2.42
2023-03-10T04:23:07.357Z,3.20
2023-03-10T04:25:33.984Z,2.45
2023-03-10T04:28:00.492Z,3.13
2023-03-10T04:30:29.714Z,1.88
2023-03-10T04:33:00.342Z,3.97
2023-03-10T04:35:27.361Z,1.20
2023-03-10T04:37:54.872Z,1.08
2023-03-10T04:40:21.813Z,2.40
2023-03-10T04:42:48.362Z,2.25
2023-03-10T04:45:14.970Z,0.93
2023-03-10T04:47:41.626Z,2.42
2023-03-10T04:50:08.743Z,0.93
2023-03-10T04:52:35.286Z,1.50
2023-03-10T04:55:02.022Z,1.52
2023-03-10T04:57:28.629Z,1.60
2023-03-10T04:59:55.236Z,2.38
2023-03-10T05:02:21.946Z,2.40
2023-03-10T05:04:48.518Z,2.63
2023-03-10T05:07:15.294Z,1.58
2023-03-10T05:09:42.472Z,3.53
2023-03-10T05:12:10.741Z,4.40
2023-03-10T05:14:38.065Z,1.45
2023-03-10T05:17:05.198Z,1.98
2023-03-10T05:19:34.064Z,1.77
2023-03-10T05:22:01.356Z,3.05
2023-03-10T05:24:27.884Z,2.90
2023-03-10T05:26:54.488Z,2.88
2023-03-10T05:29:21.334Z,3.47
2023-03-10T05:31:48.035Z,1.55
2023-03-10T05:34:15.090Z,2.22
2023-03-10T05:36:42.880Z,4.03
2023-03-10T05:39:10.890Z,2.13
2023-03-10T05:41:38.007Z,3.67
2023-03-10T05:44:04.821Z,4.03
2023-03-10T05:46:31.549Z,2.50
2023-03-10T05:48:58.181Z,3.22
2023-03-10T05:51:24.966Z,4.95
2023-03-10T05:53:51.697Z,4.93
2023-03-10T05:56:19.567Z,3.50
2023-03-10T05:58:48.280Z,3.80
2023-03-10T06:01:14.988Z,4.30
2023-03-10T06:03:42.085Z,4.28
2023-03-10T06:06:08.798Z,5.35
2023-03-10T06:08:35.607Z,2.95
2023-03-10T06:11:02.849Z,5.53
2023-03-10T06:13:29.509Z,5.07
2023-03-10T06:15:58.842Z,3.22
2023-03-10T06:18:27.067Z,3.63
2023-03-10T06:20:54.229Z,4.68
2023-03-10T06:23:22.011Z,5.32
2023-03-10T06:26:11.434Z,4.35
2023-03-10T06:28:40.094Z,6.38
2023-03-10T06:31:14.900Z,8.27
2023-03-10T06:33:41.835Z,4.15
2023-03-10T06:36:10.781Z,6.15
2023-03-10T06:38:37.897Z,4.93
2023-03-10T06:41:05.428Z,7.13
2023-03-10T06:43:33.215Z,6.35
2023-03-10T06:46:03.809Z,5.28
2023-03-10T06:48:30.624Z,6.35
2023-03-10T06:50:57.285Z,3.35
2023-03-10T06:53:23.939Z,4.78
2023-03-10T06:56:04.009Z,7.70
2023-03-10T06:58:32.128Z,8.05
2023-03-10T07:00:59.133Z,4.10
2023-03-10T07:03:28.414Z,6.30
2023-03-10T07:05:56.137Z,6.53
2023-03-10T07:08:22.786Z,6.15
2023-03-10T07:10:51.479Z,4.47
2023-03-10T07:13:19.043Z,6.53
2023-03-10T07:15:46.311Z,10.10
2023-03-10T07:18:16.296Z,6.40
2023-03-10T07:20:47.723Z,4.82
2023-03-10T07:23:14.824Z,6.63
2023-03-10T07:25:41.581Z,10.63
2023-03-10T07:28:08.446Z,7.57
2023-03-10T07:30:35.384Z,6.78
2023-03-10T07:33:02.101Z,5.55
2023-03-10T07:35:28.740Z,6.85
2023-03-10T07:37:55.324Z,4.85
2023-03-10T07:40:25.218Z,5.00
2023-03-10T07:42:54.465Z,6.93
2023-03-10T07:45:22.465Z,8.07
2023-03-10T07:47:51.101Z,7.35
2023-03-10T07:50:18.812Z,7.82
2023-03-10T07:52:45.542Z,4.70
2023-03-10T07:55:12.343Z,8.52
2023-03-10T07:57:38.980Z,5.63
2023-03-10T08:00:06.525Z,8.40
2023-03-10T08:02:33.189Z,7.00
2023-03-10T08:05:00.072Z,6.57
2023-03-10T08:07:27.600Z,7.78
2023-03-10T08:09:54.764Z,8.63
2023-03-10T08:12:22.058Z,7.38
2023-03-10T08:14:48.899Z,7.15
2023-03-10T08:17:15.511Z,6.47
2023-03-10T08:19:42.420Z,7.45
2023-03-10T08:22:10.101Z,5.90
2023-03-10T08:24:37.988Z,7.30
2023-03-10T08:27:05.840Z,6.50
2023-03-10T08:29:32.529Z,8.27
2023-03-10T08:31:59.200Z,5.82
2023-03-10T08:34:25.932Z,8.23
2023-03-10T08:36:52.565Z,7.07
2023-03-10T08:39:19.273Z,8.25
2023-03-10T08:41:49.457Z,7.95
2023-03-10T08:44:17.818Z,7.32
2023-03-10T08:46:49.458Z,5.28
2023-03-10T08:49:17.624Z,5.72
2023-03-10T08:51:44.699Z,4.93
2023-03-10T08:54:13.604Z,5.68
2023-03-10T08:56:40.190Z,5.05
2023-03-10T08:59:06.823Z,8.75
2023-03-10T09:01:36.850Z,7.55
2023-03-10T09:04:05.715Z,4.47
2023-03-10T09:06:32.542Z,4.82
2023-03-10T09:08:59.146Z,4.45
2023-03-10T09:11:28.697Z,5.53
2023-03-10T09:13:55.708Z,3.88
2023-03-10T09:16:22.506Z,5.80
2023-03-10T09:18:49.219Z,3.25
2023-03-10T09:21:18.439Z,2.63
2023-03-10T09:23:47.924Z,4.45
2023-03-10T09:26:15.350Z,3.40
2023-03-10T09:28:42.494Z,5.57
2023-03-10T09:31:15.455Z,3.08
2023-03-10T09:33:42.029Z,3.45
2023-03-10T09:36:09.308Z,4.53
2023-03-10T09:38:36.552Z,3.47
2023-03-10T09:41:15.143Z,1.65
2023-03-10T09:43:50.596Z,3.25
2023-03-10T09:46:29.031Z,6.43
2023-03-10T09:49:14.197Z,7.82
2023-03-10T09:51:46.382Z,4.20
2023-03-10T09:54:51.466Z,4.60
2023-03-10T09:57:22.084Z,6.13
2023-03-10T09:59:51.707Z,6.78
2023-03-10T10:02:23.188Z,7.18
2023-03-10T10:05:04.182Z,4.28
2023-03-10T10:07:43.604Z,6.03
2023-03-10T10:10:20.207Z,2.40
2023-03-10T10:12:52.359Z,7.53
2023-03-10T10:15:24.669Z,5.90
2023-03-10T10:18:27.738Z,10.98
2023-03-10T10:21:00.139Z,4.45
2023-03-10T10:23:48.827Z,5.65
2023-03-10T10:26:21.878Z,8.65
2023-03-10T10:28:57.589Z,3.65
2023-03-10T10:31:30.393Z,3.50
2023-03-10T10:34:19.725Z,3.95
2023-03-10T10:36:54.746Z,3.65
2023-03-10T10:39:28.771Z,3.63
2023-03-10T10:42:24.573Z,2.58
2023-03-10T10:44:55.316Z,3.97
2023-03-10T10:47:32.992Z,2.10
2023-03-10T10:50:20.382Z,1.90
2023-03-10T10:52:50.395Z,3.40
2023-03-10T10:55:34.995Z,2.33
2023-03-10T10:58:04.258Z,4.95
2023-03-10T11:00:39.769Z,3.13
2023-03-10T11:03:40.409Z,2.15
2023-03-10T11:06:29.128Z,2.95
2023-03-10T11:09:18.664Z,2.85
2023-03-10T11:12:02.253Z,3.38
2023-03-10T11:14:47.199Z,1.85
2023-03-10T11:17:26.487Z,1.38
2023-03-10T11:20:09.433Z,2.13
2023-03-10T11:22:49.457Z,1.52
2023-03-10T11:25:34.485Z,2.53
2023-03-10T11:28:16.099Z,2.35
2023-03-10T11:31:09.518Z,1.90
2023-03-10T11:34:08.785Z,1.38
2023-03-10T11:36:55.779Z,2.15
2023-03-10T11:39:45.501Z,2.65
2023-03-10T11:42:27.053Z,2.05
2023-03-10T11:45:02.868Z,1.42
2023-03-10T11:47:52.651Z,2.47
2023-03-10T11:50:44.033Z,2.05
2023-03-10T11:53:19.249Z,3.00
2023-03-10T11:58:28.934Z,1.48
2023-03-10T12:00:55.994Z,1.67
2023-03-10T12:03:38.634Z,2.75
2023-03-10T12:06:12.996Z,2.75
2023-03-10T12:08:40.542Z,3.23
2023-03-10T12:11:15.830Z,1.55
2023-03-10T12:13:49.168Z,1.02
2023-03-10T12:16:29.482Z,1.55
2023-03-10T12:18:56.592Z,2.33
2023-03-10T12:21:33.821Z,1.80
2023-03-10T12:24:02.756Z,0.95
2023-03-10T12:26:59.606Z,1.23
2023-03-10T12:29:29.238Z,1.42
2023-03-10T12:31:56.795Z,1.20
2023-03-10T12:34:31.445Z,1.90
2023-03-10T12:37:06.204Z,0.95
2023-03-10T12:39:51.164Z,0.52
2023-03-10T12:42:34.879Z,0.98
2023-03-10T12:45:17.170Z,0.70
2023-03-10T12:47:56.881Z,0.82
2023-03-10T12:50:33.053Z,0.73
2023-03-10T12:53:11.693Z,1.80
2023-03-10T12:55:41.864Z,1.80
2023-03-10T12:58:38.508Z,1.92
2023-03-10T13:01:07.427Z,1.05
2023-03-10T13:03:41.812Z,1.20
2023-03-10T13:06:12.969Z,1.20
2023-03-10T13:08:39.578Z,1.95
2023-03-10T13:11:48.832Z,0.82
2023-03-10T13:14:21.600Z,0.75
2023-03-10T13:16:56.871Z,0.98
2023-03-10T13:21:51.874Z,1.58
2023-03-10T13:24:29.942Z,1.60
2023-03-10T13:27:03.969Z,2.30
2023-03-10T13:29:31.046Z,1.42
2023-03-10T13:31:57.847Z,2.78
2023-03-10T13:34:28.748Z,2.30
2023-03-10T13:37:07.528Z,3.35
2023-03-10T13:39:34.489Z,1.63
2023-03-10T13:42:03.036Z,1.35
2023-03-10T13:44:34.764Z,2.10
2023-03-10T13:47:17.222Z,4.55
2023-03-10T13:49:48.656Z,1.50
2023-03-10T13:52:17.846Z,1.42
2023-03-10T13:54:44.572Z,1.15
2023-03-10T13:57:18.855Z,2.60
2023-03-10T13:59:47.416Z,0.77
2023-03-10T14:02:33.246Z,1.77
2023-03-10T14:05:00.853Z,0.70
2023-03-10T14:07:30.656Z,1.10
2023-03-10T14:10:07.720Z,0.68
2023-03-10T14:12:40.169Z,1.10
2023-03-10T14:15:27.967Z,1.10
2023-03-10T14:18:06.965Z,1.13
2023-03-10T14:20:37.700Z,1.08
2023-03-10T14:23:19.603Z,0.70
2023-03-10T14:25:47.123Z,2.10
2023-03-10T14:28:17.607Z,1.77
2023-03-10T14:30:44.291Z,1.40
2023-03-10T14:33:15.649Z,1.85
2023-03-10T14:35:43.785Z,1.67
2023-03-10T14:38:10.531Z,1.73
2023-03-10T14:40:44.210Z,2.58
2023-03-10T14:43:41.300Z,1.33
2023-03-10T14:46:12.421Z,1.98
2023-03-10T14:48:41.736Z,0.82
2023-03-10T14:51:19.904Z,2.28
2023-03-10T14:53:49.251Z,1.85
2023-03-10T14:56:20.871Z,0.75
2023-03-10T14:58:53.926Z,0.70
2023-03-10T15:01:21.652Z,1.73
2023-03-10T15:03:51.343Z,3.20
2023-03-10T15:06:19.536Z,1.00
2023-03-10T15:08:46.200Z,0.95
2023-03-10T15:11:14.695Z,0.55
2023-03-10T15:13:42.902Z,0.40
2023-03-10T15:16:13.543Z,0.85
2023-03-10T15:18:40.143Z,0.40
2023-03-10T15:21:06.797Z,0.47
2023-03-10T15:23:34.142Z,1.90
2023-03-10T15:26:03.798Z,0.45
2023-03-10T15:28:30.477Z,1.58
2023-03-10T15:30:57.077Z,0.45
2023-03-10T15:33:23.609Z,0.45
2023-03-10T15:35:50.726Z,0.60
2023-03-10T15:38:17.370Z,0.70
2023-03-10T15:40:44.043Z,1.27
2023-03-10T15:43:10.647Z,0.10
2023-03-10T15:45:40.953Z,1.65
2023-03-10T15:48:07.865Z,1.10
2023-03-10T15:50:34.563Z,0.32
2023-03-10T15:53:01.482Z,0.68
2023-03-10T15:55:29.252Z,1.55
2023-03-10T15:57:57.508Z,0.20
2023-03-10T16:00:25.835Z,0.28
2023-03-10T16:02:52.889Z,1.48
2023-03-10T16:05:20.055Z,0.40
2023-03-10T16:07:46.718Z,2.25
2023-03-10T16:10:16.473Z,0.28
2023-03-10T16:12:43.064Z,1.00
2023-03-10T16:15:10.466Z,0.80
2023-03-10T16:17:37.282Z,0.80
2023-03-10T16:20:10.129Z,0.57
2023-03-10T16:22:40.309Z,0.68
2023-03-10T16:25:09.034Z,0.20
2023-03-10T16:27:35.667Z,1.52
2023-03-10T16:30:03.387Z,0.40
2023-03-10T16:32:30.354Z,0.55
2023-03-10T16:34:56.984Z,1.15
2023-03-10T16:37:26.304Z,1.35
2023-03-10T16:39:54.639Z,0.52
2023-03-10T16:42:22.878Z,0.38
2023-03-10T16:44:49.544Z,0.98
2023-03-10T16:47:17.895Z,1.42
2023-03-10T16:49:44.889Z,0.93
2023-03-10T16:52:11.547Z,1.02
2023-03-10T16:54:38.377Z,0.50
2023-03-10T16:57:07.169Z,1.42
2023-03-10T16:59:33.861Z,1.27
2023-03-10T17:02:00.911Z,1.23
2023-03-10T17:04:28.017Z,0.60
2023-03-10T17:06:54.766Z,3.00
2023-03-10T17:09:21.495Z,0.95
2023-03-10T17:11:54.701Z,0.60
2023-03-10T17:14:21.921Z,0.50
2023-03-10T17:16:49.130Z,1.92
2023-03-10T17:19:19.307Z,1.20
2023-03-10T17:21:48.953Z,0.80
2023-03-10T17:24:17.508Z,0.32
2023-03-10T17:26:45.176Z,0.30
2023-03-10T17:29:12.575Z,1.33
2023-03-10T17:31:39.370Z,0.60
2023-03-10T17:34:08.537Z,0.38
2023-03-10T17:36:35.344Z,1.02
2023-03-10T17:39:06.175Z,1.20
2023-03-10T17:41:34.740Z,0.95
2023-03-10T17:44:04.310Z,0.60
2023-03-10T17:46:31.214Z,0.68
2023-03-10T17:48:58.370Z,0.82
2023-03-10T17:51:28.643Z,1.00
2023-03-10T17:53:57.913Z,1.25
2023-03-10T17:56:25.223Z,0.43
2023-03-10T17:58:56.683Z,2.78
2023-03-10T18:01:28.762Z,1.75
2023-03-10T18:03:57.070Z,1.08
2023-03-10T18:06:30.163Z,1.23
2023-03-10T18:08:59.115Z,1.40
2023-03-10T18:11:26.556Z,0.63
2023-03-10T18:13:53.598Z,1.27
2023-03-10T18:16:21.750Z,1.67
2023-03-10T18:18:48.676Z,0.70
2023-03-10T18:21:17.062Z,1.25
2023-03-10T18:23:44.888Z,2.33
2023-03-10T18:26:14.468Z,0.70
2023-03-10T18:28:41.817Z,0.60
2023-03-10T18:31:11.266Z,1.58
2023-03-10T18:33:38.052Z,1.60
2023-03-10T18:36:06.392Z,1.75
2023-03-10T18:38:33.481Z,0.90
2023-03-10T18:41:01.684Z,1.52
2023-03-10T18:43:29.228Z,2.13
2023-03-10T18:45:56.361Z,1.30
2023-03-10T18:48:28.411Z,0.85
2023-03-10T18:50:56.378Z,2.47
2023-03-10T18:53:24.392Z,0.40
2023-03-10T18:55:51.528Z,2.28
2023-03-10T18:58:18.345Z,1.40
2023-03-10T19:00:45.516Z,0.50
2023-03-10T19:03:13.625Z,0.63
2023-03-10T19:05:41.429Z,1.42
2023-03-10T19:08:10.285Z,1.25
2023-03-10T19:10:39.587Z,5.43
2023-03-10T19:13:07.809Z,5.13
2023-03-10T19:15:39.264Z,1.67
2023-03-10T19:18:06.576Z,1.20
2023-03-10T19:20:33.652Z,0.95
2023-03-10T19:23:00.381Z,0.95
2023-03-10T19:25:27.000Z,0.88
2023-03-10T19:27:53.931Z,2.55
2023-03-10T19:30:20.986Z,0.90
2023-03-10T19:32:48.439Z,0.95
2023-03-10T19:35:16.702Z,2.17
2023-03-10T19:37:43.498Z,1.35
2023-03-10T19:40:14.710Z,1.50
2023-03-10T19:42:43.004Z,1.42
2023-03-10T19:45:18.116Z,1.67
2023-03-10T19:50:16.542Z,1.40
2023-03-10T19:52:48.263Z,1.70
2023-03-10T19:55:23.410Z,2.00
2023-03-10T19:57:52.757Z,2.10
2023-03-10T20:00:25.399Z,2.30
2023-03-10T20:02:55.445Z,2.38
2023-03-10T20:05:25.517Z,2.20
2023-03-10T20:07:52.614Z,2.50
2023-03-10T20:10:19.427Z,3.35
2023-03-10T20:12:51.329Z,3.95
2023-03-10T20:15:18.797Z,2.97
2023-03-10T20:17:45.687Z,4.53
2023-03-10T20:20:15.074Z,2.90
2023-03-10T20:22:43.862Z,3.58
2023-03-10T20:25:12.636Z,5.10
2023-03-10T20:27:39.748Z,4.35
2023-03-10T20:30:19.160Z,5.18
2023-03-10T20:32:45.919Z,3.67
2023-03-10T20:35:13.777Z,3.70
2023-03-10T20:37:41.882Z,4.03
2023-03-10T20:40:13.579Z,3.78
2023-03-10T20:42:40.787Z,3.67
2023-03-10T20:45:09.432Z,7.55
2023-03-10T20:47:36.456Z,5.80
2023-03-10T20:50:05.471Z,7.35
2023-03-10T20:52:37.669Z,4.93
2023-03-10T20:55:06.993Z,3.50
2023-03-10T20:57:34.721Z,3.47
2023-03-10T21:00:01.716Z,3.08
2023-03-10T21:02:28.345Z,4.10
2023-03-10T21:04:55.506Z,3.35
2023-03-10T21:07:22.063Z,3.50
2023-03-10T21:09:48.718Z,3.83
2023-03-10T21:12:18.431Z,4.13
2023-03-10T21:14:45.781Z,3.25
2023-03-10T21:17:12.805Z,3.30
2023-03-10T21:19:39.492Z,4.68
2023-03-10T21:22:06.042Z,3.35
2023-03-10T21:24:32.643Z,3.90
2023-03-10T21:27:00.169Z,3.30
2023-03-10T21:29:27.086Z,3.40
2023-03-10T21:31:53.718Z,5.03
2023-03-10T21:34:20.331Z,3.53
2023-03-10T21:36:46.871Z,3.45
2023-03-10T21:39:13.445Z,3.72
2023-03-10T21:41:40.056Z,3.63
2023-03-10T21:44:07.413Z,3.55
2023-03-10T21:46:34.005Z,2.97
2023-03-10T21:49:00.578Z,2.80
2023-03-10T21:51:27.280Z,2.70
2023-03-10T21:53:54.395Z,3.50
2023-03-10T21:56:22.633Z,2.88
2023-03-10T21:58:49.381Z,2.65
2023-03-10T22:01:18.201Z,3.38
2023-03-10T22:03:45.125Z,2.58
2023-03-10T22:06:11.999Z,1.75
2023-03-10T22:08:38.595Z,2.10
2023-03-10T22:11:06.812Z,2.10
2023-03-10T22:13:37.367Z,2.22
2023-03-10T22:16:05.642Z,2.67
2023-03-10T22:18:32.828Z,1.80
2023-03-10T22:20:59.686Z,2.55
2023-03-10T22:23:26.224Z,2.63
2023-03-10T22:25:52.772Z,2.20
2023-03-10T22:28:19.323Z,2.33
2023-03-10T22:30:45.894Z,2.85
2023-03-10T22:33:12.472Z,2.45
2023-03-10T22:35:39.124Z,1.98
2023-03-10T22:38:06.414Z,2.22
2023-03-10T22:40:33.439Z,1.73
2023-03-10T22:43:00.032Z,1.90
2023-03-10T22:45:29.776Z,1.67
2023-03-10T22:47:59.506Z,1.50
2023-03-10T22:50:29.527Z,3.35
2023-03-10T22:52:56.144Z,1.83
2023-03-10T22:55:24.609Z,1.60
2023-03-10T22:57:52.440Z,1.70
2023-03-10T23:00:21.440Z,1.77
2023-03-10T23:02:49.072Z,1.60
2023-03-10T23:05:16.660Z,2.08
2023-03-10T23:07:43.891Z,1.52
2023-03-10T23:10:25.392Z,1.50
2023-03-10T23:12:53.263Z,1.48
2023-03-10T23:15:25.794Z,1.67
2023-03-10T23:17:53.981Z,1.70
2023-03-10T23:20:23.926Z,1.40
2023-03-10T23:22:50.512Z,2.28
2023-03-10T23:25:20.539Z,1.50
2023-03-10T23:27:47.388Z,1.80
2023-03-10T23:30:15.249Z,2.22
2023-03-10T23:32:47.342Z,2.05
2023-03-10T23:35:20.629Z,1.80
2023-03-10T23:37:47.322Z,3.10
2023-03-10T23:40:16.393Z,2.05
2023-03-10T23:42:43.741Z,1.92
2023-03-10T23:45:13.377Z,1.88
2023-03-10T23:47:40.939Z,3.33
2023-03-10T23:50:08.969Z,2.08
2023-03-10T23:52:35.661Z,2.13
2023-03-10T23:55:02.247Z,1.80
2023-03-10T23:57:28.809Z,2.85
2023-03-10T23:59:55.389Z,2.55
